Time;durP1;ratioP1;P1;durP2;ratioP2;P2;SDS_P1;SDS_P2;PMS_P1;PMS_P2;Temp;Humidity;BMP_temperature;BMP_pressure;BME280_temperature;BME280_humidity;BME280_pressure;Samples;Min_cycle;Max_cycle;Signal;HPM_P1;HPM_P2
2022/09/08 00:01:11;;;;;;;12.70;6.15;;;;;;;18.91;nan;95352.03;5032136;28;20206;-65
2022/09/08 00:03:38;;;;;;;7.90;6.07;;;;;;;19.26;nan;95354.19;5029704;28;20203;-62
2022/09/08 00:06:11;;;;;;;6.43;5.53;;;;;;;19.51;nan;95356.88;5031823;28;20256;-66
2022/09/08 00:08:38;;;;;;;5.53;5.03;;;;;;;19.42;nan;95351.44;5028898;28;20210;-62
2022/09/08 00:11:09;;;;;;;5.68;4.93;;;;;;;18.94;nan;95351.03;5030359;28;20209;-65
2022/09/08 00:13:39;;;;;;;8.55;5.70;;;;;;;18.87;nan;95360.88;5031664;28;20761;-63
2022/09/08 00:16:07;;;;;;;5.70;5.20;;;;;;;18.81;nan;95361.22;5031008;28;20290;-62
2022/09/08 00:18:35;;;;;;;8.38;6.88;;;;;;;18.86;nan;95359.22;5031254;28;20210;-62
2022/09/08 00:21:02;;;;;;;6.22;5.72;;;;;;;18.61;nan;95359.03;5030138;28;20210;-62
2022/09/08 00:23:29;;;;;;;6.80;6.05;;;;;;;18.47;nan;95361.59;5028901;28;20604;-60
2022/09/08 00:25:55;;;;;;;6.28;5.85;;;;;;;18.31;nan;95362.50;5028091;28;20352;-61
2022/09/08 00:28:24;;;;;;;9.15;8.20;;;;;;;18.41;nan;95356.81;5030975;28;20619;-64
2022/09/08 00:30:51;;;;;;;6.15;5.55;;;;;;;18.82;nan;95356.91;5030226;28;20283;-64
2022/09/08 00:33:17;;;;;;;7.30;6.78;;;;;;;18.96;nan;95360.31;5031183;28;20746;-65
2022/09/08 00:35:45;;;;;;;6.10;5.60;;;;;;;18.66;nan;95352.72;5031917;28;20207;-61
2022/09/08 00:38:12;;;;;;;5.65;5.35;;;;;;;18.51;nan;95357.94;5031769;28;20238;-64
2022/09/08 00:40:45;;;;;;;5.22;4.93;;;;;;;18.59;nan;95359.13;5030193;28;20234;-63
2022/09/08 00:43:30;;;;;;;5.60;5.20;;;;;;;18.89;nan;95361.59;5028528;28;20224;-66
2022/09/08 00:46:03;;;;;;;7.03;6.43;;;;;;;19.06;nan;95359.72;5031847;28;20210;-62
2022/09/08 00:48:30;;;;;;;14.02;9.65;;;;;;;19.08;nan;95363.03;5031337;28;20280;-64
2022/09/08 00:50:58;;;;;;;10.02;7.82;;;;;;;18.98;nan;95362.78;5030499;28;20271;-65
2022/09/08 00:53:26;;;;;;;10.48;5.75;;;;;;;18.88;nan;95362.53;5029673;28;20307;-64
2022/09/08 00:55:54;;;;;;;9.65;6.05;;;;;;;18.76;nan;95359.88;5032184;28;21512;-68
2022/09/08 00:58:20;;;;;;;7.57;6.28;;;;;;;18.40;nan;95362.88;5031993;28;20214;-66
2022/09/08 01:00:47;;;;;;;6.88;6.38;;;;;;;18.06;nan;95377.72;5029479;28;20229;-61
2022/09/08 01:03:17;;;;;;;7.95;6.03;;;;;;;18.43;nan;95375.56;5030560;28;20683;-64
2022/09/08 01:05:51;;;;;;;9.15;5.80;;;;;;;18.45;nan;95378.88;5029089;28;20620;-66
2022/09/08 01:14:05;;;;;;;9.68;8.88;;;;;;;18.22;nan;95357.91;5026661;28;20727;-65
2022/09/08 01:16:40;;;;;;;10.55;9.18;;;;;;;17.92;nan;95360.50;5025057;28;20202;-65
2022/09/08 01:19:15;;;;;;;21.08;13.68;;;;;;;17.73;nan;95359.09;5028987;28;20792;-65
2022/09/08 01:21:58;;;;;;;13.50;6.38;;;;;;;17.83;nan;95358.44;5027392;28;20255;-62
2022/09/08 01:24:42;;;;;;;7.30;6.57;;;;;;;18.12;nan;95369.63;5029817;28;20225;-61
2022/09/08 01:27:14;;;;;;;5.78;5.22;;;;;;;18.46;nan;95360.78;5027540;28;20676;-64
2022/09/08 01:29:43;;;;;;;5.57;5.22;;;;;;;18.31;nan;95361.69;5027437;28;20249;-61
2022/09/08 01:32:12;;;;;;;6.55;6.15;;;;;;;17.97;nan;95363.66;5028411;28;20218;-65
2022/09/08 01:34:41;;;;;;;6.70;6.05;;;;;;;17.97;nan;95373.09;5030875;28;20218;-60
2022/09/08 01:37:08;;;;;;;5.93;5.45;;;;;;;18.22;nan;95368.19;5027798;28;20295;-62
2022/09/08 01:39:34;;;;;;;20.98;16.55;;;;;;;18.51;nan;95368.22;5031060;28;20793;-63
2022/09/08 01:42:01;;;;;;;8.32;5.40;;;;;;;18.48;nan;95363.25;5027536;28;20234;-67
2022/09/08 01:44:30;;;;;;;7.00;6.45;;;;;;;18.54;nan;95358.56;5029696;28;20226;-62
2022/09/08 01:46:57;;;;;;;8.88;6.45;;;;;;;18.64;nan;95359.69;5030447;28;20206;-62
2022/09/08 01:49:23;;;;;;;8.02;6.82;;;;;;;18.83;nan;95354.25;5030077;28;20287;-65
2022/09/08 01:51:51;;;;;;;6.82;6.28;;;;;;;19.06;nan;95364.88;5025073;28;20210;-68
2022/09/08 01:54:18;;;;;;;8.43;7.55;;;;;;;19.17;nan;95363.28;5028488;28;20264;-62
2022/09/08 01:56:45;;;;;;;6.60;6.00;;;;;;;19.21;nan;95363.94;5026503;28;20954;-60
2022/09/08 01:59:11;;;;;;;9.98;5.70;;;;;;;19.17;nan;95357.31;5027163;28;20273;-66
2022/09/08 02:01:39;;;;;;;6.70;6.10;;;;;;;19.01;nan;95363.44;5027001;28;20291;-64
2022/09/08 02:04:06;;;;;;;6.25;5.85;;;;;;;18.96;nan;95350.00;5028831;28;20252;-62
2022/09/08 02:06:33;;;;;;;7.03;5.68;;;;;;;18.60;nan;95349.66;5027251;28;20249;-61
2022/09/08 02:09:00;;;;;;;6.70;5.38;;;;;;;18.48;nan;95358.09;5025515;28;21117;-63
2022/09/08 02:11:27;;;;;;;5.75;5.35;;;;;;;18.27;nan;95350.75;5027573;28;21922;-64
2022/09/08 02:13:53;;;;;;;6.05;5.38;;;;;;;18.30;nan;95347.19;5029829;28;20228;-64
2022/09/08 02:16:20;;;;;;;5.93;5.32;;;;;;;18.35;nan;95345.97;5028910;28;20209;-65
2022/09/08 02:18:48;;;;;;;5.68;5.18;;;;;;;18.53;nan;95350.94;5027949;28;20214;-66
2022/09/08 02:21:17;;;;;;;7.88;4.95;;;;;;;18.53;nan;95350.94;5027887;28;20812;-65
2022/09/08 02:23:46;;;;;;;5.25;4.82;;;;;;;18.56;nan;95346.41;5024409;28;20209;-63
2022/09/08 02:26:18;;;;;;;5.25;4.95;;;;;;;18.47;nan;95346.97;5026424;28;20202;-63
2022/09/08 02:28:45;;;;;;;6.05;5.45;;;;;;;18.33;nan;95347.78;5028951;28;21866;-65
2022/09/08 02:31:12;;;;;;;8.20;5.43;;;;;;;18.49;nan;95350.31;5027062;28;20648;-65
2022/09/08 02:33:40;;;;;;;7.93;5.80;;;;;;;18.59;nan;95345.41;5028265;28;20212;-66
2022/09/08 02:36:08;;;;;;;7.78;5.43;;;;;;;18.55;nan;95343.97;5027744;28;20210;-65
2022/09/08 02:38:35;;;;;;;12.70;5.47;;;;;;;18.43;nan;95340.38;5027500;28;20233;-65
2022/09/08 02:41:02;;;;;;;6.57;5.93;;;;;;;18.29;nan;95342.94;5026831;28;20275;-64
2022/09/08 02:43:29;;;;;;;5.55;5.05;;;;;;;18.18;nan;95341.00;5027678;28;20218;-63
2022/09/08 02:45:55;;;;;;;6.22;5.40;;;;;;;18.22;nan;95337.31;5028916;28;20635;-62
2022/09/08 02:48:23;;;;;;;6.10;5.60;;;;;;;18.25;nan;95342.28;5027825;28;22681;-64
2022/09/08 02:50:50;;;;;;;10.30;5.35;;;;;;;18.29;nan;95338.63;5027737;28;20198;-65
2022/09/08 02:53:18;;;;;;;6.32;5.57;;;;;;;18.39;nan;95348.34;5028251;28;20206;-65
2022/09/08 02:55:45;;;;;;;7.10;5.38;;;;;;;17.68;nan;95349.88;5026630;28;20764;-65
2022/09/08 02:58:12;;;;;;;7.13;6.45;;;;;;;17.22;nan;95345.63;5027511;28;20296;-65
2022/09/08 03:00:39;;;;;;;5.57;5.05;;;;;;;16.99;nan;95336.63;5026590;28;20287;-66
2022/09/08 03:03:07;;;;;;;6.43;5.80;;;;;;;17.07;nan;95341.34;5027576;28;20877;-63
2022/09/08 03:05:34;;;;;;;7.07;5.30;;;;;;;17.21;nan;95346.53;5028585;28;20229;-64
2022/09/08 03:08:03;;;;;;;6.35;5.47;;;;;;;17.47;nan;95347.66;5028527;28;20198;-64
2022/09/08 03:10:32;;;;;;;5.80;5.22;;;;;;;17.25;nan;95342.91;5027972;28;20206;-64
2022/09/08 03:12:59;;;;;;;6.00;5.60;;;;;;;17.07;nan;95347.31;5027895;28;20234;-62
2022/09/08 03:15:28;;;;;;;6.10;5.53;;;;;;;17.06;nan;95337.94;5028561;28;20295;-65
2022/09/08 03:17:55;;;;;;;5.95;5.45;;;;;;;17.26;nan;95344.56;5031948;28;20263;-64
2022/09/08 03:20:22;;;;;;;7.05;6.38;;;;;;;17.52;nan;95336.22;5031537;28;20242;-63
2022/09/08 03:22:49;;;;;;;8.73;6.15;;;;;;;17.57;nan;95344.47;5031635;28;20293;-64
2022/09/08 03:25:17;;;;;;;5.82;5.43;;;;;;;17.38;nan;95353.31;5031992;28;20190;-63
2022/09/08 03:27:45;;;;;;;6.15;5.45;;;;;;;17.43;nan;95349.59;5032140;28;20252;-61
2022/09/08 03:30:15;;;;;;;8.07;5.55;;;;;;;17.54;nan;95351.56;5032916;28;20668;-65
2022/09/08 03:32:43;;;;;;;8.25;5.90;;;;;;;17.22;nan;95363.63;5033355;28;20195;-64
2022/09/08 03:35:12;;;;;;;13.23;5.75;;;;;;;17.19;nan;95362.03;5031211;28;20226;-64
2022/09/08 03:37:39;;;;;;;8.60;5.85;;;;;;;17.23;nan;95360.13;5032162;28;21694;-63
2022/09/08 03:40:07;;;;;;;9.15;6.45;;;;;;;17.03;nan;95357.81;5031834;28;20214;-63
2022/09/08 03:42:35;;;;;;;8.10;5.85;;;;;;;16.81;nan;95353.84;5031912;28;20202;-65
2022/09/08 03:45:04;;;;;;;9.95;5.68;;;;;;;16.75;nan;95354.16;5032218;28;20330;-64
2022/09/08 03:47:30;;;;;;;5.68;5.18;;;;;;;16.72;nan;95346.63;5031399;28;20199;-63
2022/09/08 03:49:57;;;;;;;11.65;6.50;;;;;;;16.15;nan;95353.81;5032110;28;20212;-64
2022/09/08 03:52:24;;;;;;;18.75;5.78;;;;;;;15.76;nan;95350.69;5031767;28;20299;-62
2022/09/08 03:54:51;;;;;;;15.65;6.30;;;;;;;15.41;nan;95360.03;4993189;28;1132372;-64
2022/09/08 03:57:21;;;;;;;7.28;6.57;;;;;;;15.42;nan;95357.41;5033107;28;20206;-64
2022/09/08 03:59:48;;;;;;;33.75;19.08;;;;;;;15.49;nan;95353.66;5032256;28;20260;-64
2022/09/08 04:02:18;;;;;;;31.02;20.08;;;;;;;16.13;nan;95360.75;5032611;28;20202;-65
2022/09/08 04:04:47;;;;;;;12.57;8.52;;;;;;;16.71;nan;95362.94;5032617;28;20643;-64
2022/09/08 04:07:14;;;;;;;9.32;6.68;;;;;;;16.83;nan;95369.13;5032792;28;20218;-65
2022/09/08 04:09:42;;;;;;;10.60;6.55;;;;;;;16.73;nan;95371.38;5032755;28;20198;-62
2022/09/08 04:12:09;;;;;;;16.90;7.00;;;;;;;16.65;nan;95374.34;5033236;28;20210;-64
2022/09/08 04:14:36;;;;;;;30.63;20.42;;;;;;;16.55;nan;95372.31;5032815;28;20219;-65
2022/09/08 04:17:03;;;;;;;47.72;24.25;;;;;;;16.43;nan;95372.94;5032326;28;20757;-66
2022/09/08 04:19:31;;;;;;;16.85;12.10;;;;;;;16.66;nan;95375.16;5034638;28;20267;-66
2022/09/08 04:21:58;;;;;;;7.72;6.97;;;;;;;16.86;nan;95369.81;5032004;28;20252;-65
2022/09/08 04:24:25;;;;;;;9.20;6.50;;;;;;;16.67;nan;95374.25;5032709;28;20226;-65
2022/09/08 04:26:51;;;;;;;12.93;6.10;;;;;;;16.87;nan;95368.91;5031666;28;20206;-67
2022/09/08 04:29:18;;;;;;;9.00;6.70;;;;;;;16.96;nan;95370.16;5033783;28;20224;-65
2022/09/08 04:31:46;;;;;;;7.93;6.65;;;;;;;16.97;nan;95370.06;5031036;28;20722;-64
2022/09/08 04:34:14;;;;;;;9.95;7.13;;;;;;;17.13;nan;95362.38;5032234;28;20213;-62
2022/09/08 04:36:43;;;;;;;8.68;6.80;;;;;;;17.24;nan;95361.78;5032769;28;20297;-64
2022/09/08 04:39:11;;;;;;;13.40;7.00;;;;;;;17.42;nan;95353.06;5031788;28;20712;-64
2022/09/08 04:41:38;;;;;;;29.90;17.65;;;;;;;17.57;nan;95364.25;5031274;28;20230;-62
2022/09/08 04:44:06;;;;;;;35.47;22.00;;;;;;;17.58;nan;95365.88;5029107;28;20271;-64
2022/09/08 04:46:35;;;;;;;11.80;9.13;;;;;;;17.65;nan;95372.34;5032445;28;20222;-65
2022/09/08 04:49:03;;;;;;;18.33;8.88;;;;;;;17.74;nan;95368.44;5031420;28;20224;-65
2022/09/08 04:51:31;;;;;;;14.57;7.82;;;;;;;17.90;nan;95366.66;5032782;28;20202;-64
2022/09/08 04:54:00;;;;;;;23.95;10.80;;;;;;;18.02;nan;95360.81;5031862;28;20202;-66
2022/09/08 04:56:28;;;;;;;21.15;11.43;;;;;;;18.09;nan;95356.94;5032521;28;20216;-65
2022/09/08 04:58:56;;;;;;;15.63;8.18;;;;;;;18.26;nan;95364.53;5031783;28;20256;-62
2022/09/08 05:01:25;;;;;;;9.75;7.80;;;;;;;18.49;nan;95363.16;5031784;28;20880;-65
2022/09/08 05:03:54;;;;;;;8.95;6.65;;;;;;;18.81;nan;95356.09;5031609;28;20202;-62
2022/09/08 05:06:21;;;;;;;8.27;7.30;;;;;;;19.11;nan;95368.00;5030754;28;20276;-62
2022/09/08 05:08:50;;;;;;;8.15;6.68;;;;;;;19.33;nan;95365.72;5030145;28;20762;-64
2022/09/08 05:11:19;;;;;;;8.68;6.93;;;;;;;19.59;nan;95380.41;5031668;28;20198;-64
2022/09/08 05:13:46;;;;;;;12.40;6.68;;;;;;;19.58;nan;95373.59;5031513;28;20672;-62
2022/09/08 05:16:16;;;;;;;10.95;6.55;;;;;;;20.06;nan;95384.22;5029925;28;20269;-62
2022/09/08 05:18:42;;;;;;;12.02;7.00;;;;;;;20.65;nan;95390.59;5030017;28;20680;-63
2022/09/08 05:21:10;;;;;;;6.82;6.13;;;;;;;21.44;nan;95381.69;5031743;28;20231;-62
2022/09/08 05:23:37;;;;;;;9.65;6.45;;;;;;;22.69;nan;95381.03;5030100;28;20211;-64
2022/09/08 05:26:07;;;;;;;9.77;6.00;;;;;;;24.13;nan;95377.47;5027856;28;20211;-65
2022/09/08 05:28:37;;;;;;;12.50;5.60;;;;;;;25.56;nan;95375.69;5030825;28;20296;-65
2022/09/08 05:31:05;;;;;;;7.20;5.32;;;;;;;27.96;nan;95374.19;5031236;28;20229;-61
2022/09/08 05:33:32;;;;;;;10.95;6.30;;;;;;;29.82;nan;95373.59;5030846;28;22603;-64
2022/09/08 05:35:59;;;;;;;6.10;5.57;;;;;;;30.53;nan;95367.72;5030730;28;20275;-64
2022/09/08 05:38:27;;;;;;;8.80;5.50;;;;;;;28.76;nan;95369.72;5032510;28;20264;-65
2022/09/08 05:40:54;;;;;;;6.80;4.93;;;;;;;30.32;nan;95370.88;5031155;28;20226;-63
2022/09/08 05:43:21;;;;;;;8.32;5.45;;;;;;;29.70;nan;95372.25;5031108;28;20287;-63
2022/09/08 05:45:50;;;;;;;6.75;4.60;;;;;;;28.52;nan;95372.19;5030327;28;20660;-64
2022/09/08 05:48:17;;;;;;;8.18;6.18;;;;;;;28.65;nan;95370.81;5030640;28;20698;-63
2022/09/08 05:50:45;;;;;;;12.60;5.50;;;;;;;29.48;nan;95365.81;5031063;28;20218;-64
2022/09/08 05:53:13;;;;;;;8.38;5.28;;;;;;;30.21;nan;95368.56;5031349;28;20206;-66
2022/09/08 05:55:41;;;;;;;7.55;5.57;;;;;;;31.50;nan;95364.03;5030842;28;20791;-66
2022/09/08 05:58:08;;;;;;;8.95;6.15;;;;;;;31.04;nan;95369.13;5030934;28;20213;-63
2022/09/08 06:00:35;;;;;;;14.30;7.30;;;;;;;30.82;nan;95367.22;5028969;28;20875;-62
2022/09/08 06:03:03;;;;;;;7.38;6.05;;;;;;;30.94;nan;95372.91;5029149;28;20214;-63
2022/09/08 06:05:30;;;;;;;9.00;5.95;;;;;;;31.62;nan;95367.09;5030739;28;20275;-63
2022/09/08 06:07:57;;;;;;;8.73;6.75;;;;;;;32.55;nan;95375.63;5030129;28;20735;-63
2022/09/08 06:10:24;;;;;;;19.38;8.75;;;;;;;33.27;nan;95375.09;5028384;28;20250;-62
2022/09/08 06:12:51;;;;;;;19.52;8.90;;;;;;;33.52;nan;95368.50;5029686;28;20206;-64
2022/09/08 06:15:18;;;;;;;15.63;8.73;;;;;;;33.39;nan;95381.53;5030955;28;20226;-64
2022/09/08 06:17:45;;;;;;;7.10;5.53;;;;;;;33.77;nan;95377.72;5030680;28;20206;-64
2022/09/08 06:20:13;;;;;;;18.95;7.63;;;;;;;33.88;nan;95373.00;5030291;28;22334;-64
2022/09/08 06:22:40;;;;;;;22.95;11.98;;;;;;;34.34;nan;95371.63;5031498;28;20261;-64
2022/09/08 06:25:07;;;;;;;12.23;7.10;;;;;;;32.75;nan;95373.31;5030778;28;20748;-65
2022/09/08 06:27:43;;;;;;;10.45;5.35;;;;;;;33.15;nan;95381.81;5030561;28;20198;-67
2022/09/08 06:30:12;;;;;;;5.38;4.85;;;;;;;32.91;nan;95381.06;5030430;28;20205;-62
2022/09/08 06:32:43;;;;;;;20.33;10.25;;;;;;;33.28;nan;95376.72;5030483;28;20209;-64
2022/09/08 06:35:16;;;;;;;13.23;8.43;;;;;;;33.73;nan;95383.53;5031170;28;20295;-63
2022/09/08 06:37:48;;;;;;;12.98;7.88;;;;;;;34.33;nan;95382.38;5029741;28;20210;-61
2022/09/08 06:40:20;;;;;;;13.02;9.63;;;;;;;34.82;nan;95387.66;5030908;28;20263;-66
2022/09/08 06:42:53;;;;;;;13.35;9.52;;;;;;;35.40;nan;95385.53;5030012;28;20226;-64
2022/09/08 06:45:24;;;;;;;6.47;5.90;;;;;;;36.25;nan;95385.03;5030699;28;20596;-65
2022/09/08 06:48:01;;;;;;;12.35;5.38;;;;;;;35.47;nan;95384.56;5028994;28;20416;-62
2022/09/08 06:50:33;;;;;;;10.48;6.03;;;;;;;35.47;nan;95386.38;5029867;28;20769;-64
2022/09/08 06:53:06;;;;;;;11.05;5.95;;;;;;;35.74;nan;95398.69;5029952;28;20202;-65
2022/09/08 06:55:38;;;;;;;13.50;5.50;;;;;;;35.28;nan;95405.59;5030340;28;20233;-65
2022/09/08 06:58:18;;;;;;;10.57;6.60;;;;;;;36.12;nan;95392.94;5030549;28;20266;-66
2022/09/08 07:00:51;;;;;;;7.20;5.07;;;;;;;36.19;nan;95390.28;5030350;28;20878;-65
2022/09/08 07:03:33;;;;;;;11.07;5.03;;;;;;;35.19;nan;95393.53;5029015;28;20879;-68
2022/09/08 07:06:06;;;;;;;7.68;5.40;;;;;;;36.10;nan;95392.31;5031015;28;20699;-63
2022/09/08 07:08:59;;;;;;;8.13;5.72;;;;;;;36.63;nan;95398.47;5030914;28;20205;-64
2022/09/08 07:11:38;;;;;;;7.18;5.32;;;;;;;37.35;nan;95397.59;5030550;28;20191;-61
2022/09/08 07:14:34;;;;;;;9.73;5.63;;;;;;;36.76;nan;95387.09;5029758;28;20291;-65
2022/09/08 07:17:06;;;;;;;9.13;6.45;;;;;;;36.38;nan;95387.66;5023592;28;20202;-64
2022/09/08 07:19:43;;;;;;;9.60;5.70;;;;;;;34.68;nan;95396.44;5027833;28;20703;-64
2022/09/08 07:22:25;;;;;;;14.13;4.63;;;;;;;33.33;nan;95390.16;5029028;28;20599;-66
2022/09/08 07:24:57;;;;;;;10.80;4.30;;;;;;;31.83;nan;95396.22;5030023;28;20206;-65
2022/09/08 07:27:26;;;;;;;7.07;4.68;;;;;;;30.98;nan;95401.28;5029615;28;21209;-64
2022/09/08 07:29:58;;;;;;;11.18;6.40;;;;;;;31.08;nan;95401.94;5030258;28;20217;-62
2022/09/08 07:32:30;;;;;;;9.43;6.05;;;;;;;29.90;nan;95405.06;5029179;28;20194;-64
2022/09/08 07:35:02;;;;;;;10.93;5.88;;;;;;;29.93;nan;95403.94;5030588;28;20271;-65
2022/09/08 07:37:39;;;;;;;17.10;9.23;;;;;;;30.84;nan;95398.53;5030288;28;21075;-63
2022/09/08 07:40:16;;;;;;;35.45;13.70;;;;;;;30.11;nan;95402.00;5030544;28;20210;-65
2022/09/08 07:42:43;;;;;;;20.90;9.98;;;;;;;28.96;nan;95399.94;5028982;28;20222;-61
2022/09/08 07:45:12;;;;;;;9.50;5.22;;;;;;;27.93;nan;95399.81;5029416;28;20217;-64
2022/09/08 07:47:50;;;;;;;9.27;5.38;;;;;;;26.11;nan;95400.28;5030330;28;20324;-65
2022/09/08 07:50:53;;;;;;;15.32;6.63;;;;;;;26.10;nan;95401.22;5028730;28;20305;-64
2022/09/08 07:53:22;;;;;;;17.42;6.72;;;;;;;25.82;nan;95400.25;5029267;28;20233;-63
2022/09/08 07:55:49;;;;;;;9.20;5.50;;;;;;;26.30;nan;95391.66;5029501;28;20234;-65
2022/09/08 07:58:19;;;;;;;9.35;5.55;;;;;;;28.00;nan;95385.16;5028889;28;20679;-65
2022/09/08 08:00:56;;;;;;;13.63;5.97;;;;;;;30.13;nan;95384.31;5028006;28;20695;-63
2022/09/08 08:03:50;;;;;;;5.75;5.25;;;;;;;30.24;nan;95381.34;5032003;28;20230;-62
2022/09/08 08:06:23;;;;;;;12.85;4.57;;;;;;;30.18;nan;95381.22;5033789;28;20279;-65
2022/09/08 08:09:00;;;;;;;7.10;4.78;;;;;;;28.76;nan;95388.03;5034070;28;20206;-65
2022/09/08 08:11:32;;;;;;;6.47;5.07;;;;;;;27.94;nan;95386.59;5032130;28;21776;-64
2022/09/08 08:14:09;;;;;;;5.82;4.03;;;;;;;28.30;nan;95399.66;5033144;28;20264;-65
2022/09/08 08:16:50;;;;;;;4.43;4.10;;;;;;;29.31;nan;95398.97;5034325;28;20205;-66
2022/09/08 08:19:35;;;;;;;5.30;4.00;;;;;;;29.95;nan;95394.06;5033119;28;20202;-62
2022/09/08 08:22:15;;;;;;;17.45;4.85;;;;;;;29.37;nan;95397.53;5032634;28;20214;-65
2022/09/08 08:24:58;;;;;;;9.27;5.15;;;;;;;29.20;nan;95391.38;5032731;28;20558;-63
2022/09/08 08:27:30;;;;;;;4.80;4.30;;;;;;;28.82;nan;95387.44;5028450;28;20301;-63
2022/09/08 08:30:17;;;;;;;5.45;4.78;;;;;;;27.92;nan;95385.09;5031805;28;20692;-64
2022/09/08 08:32:49;;;;;;;5.82;4.40;;;;;;;27.53;nan;95382.72;5029989;28;21768;-64
2022/09/08 08:35:23;;;;;;;5.85;4.15;;;;;;;27.09;nan;95379.09;5026020;28;20206;-61
2022/09/08 08:37:52;;;;;;;5.70;5.10;;;;;;;26.53;nan;95379.13;5030815;28;20294;-61
2022/09/08 08:40:43;;;;;;;7.82;4.93;;;;;;;25.32;nan;95383.84;5030864;28;20216;-61
2022/09/08 08:43:29;;;;;;;6.25;5.10;;;;;;;25.38;nan;95372.91;5031428;28;20234;-63
2022/09/08 08:46:12;;;;;;;7.00;4.43;;;;;;;25.94;nan;95372.31;5030619;28;20210;-65
2022/09/08 08:48:52;;;;;;;6.82;4.07;;;;;;;26.28;nan;95362.25;5031057;28;20202;-65
2022/09/08 08:51:45;;;;;;;5.63;4.95;;;;;;;26.53;nan;95355.66;5029839;28;20202;-66
2022/09/08 08:54:28;;;;;;;5.82;4.38;;;;;;;26.53;nan;95361.69;5032039;28;20540;-63
2022/09/08 08:57:07;;;;;;;8.15;6.32;;;;;;;26.53;nan;95356.47;5029627;28;20213;-63
2022/09/08 09:00:02;;;;;;;10.77;5.40;;;;;;;26.43;nan;95353.91;5031077;28;20264;-62
2022/09/08 09:02:58;;;;;;;5.30;4.30;;;;;;;26.45;nan;95338.16;5028351;28;20328;-65
2022/09/08 09:05:40;;;;;;;5.95;4.18;;;;;;;26.68;nan;95333.41;5012163;28;20263;-63
2022/09/08 09:08:32;;;;;;;5.00;4.13;;;;;;;26.64;nan;95326.84;5030890;28;20687;-64
2022/09/08 09:11:21;;;;;;;10.77;4.90;;;;;;;26.80;nan;95321.81;5029744;28;20194;-64
2022/09/08 09:14:07;;;;;;;5.40;4.90;;;;;;;26.78;nan;95319.34;5029394;28;20214;-62
2022/09/08 09:16:50;;;;;;;6.18;5.55;;;;;;;27.04;nan;95316.91;5030002;28;20224;-64
2022/09/08 09:19:38;;;;;;;5.78;4.55;;;;;;;26.93;nan;95311.06;5031065;28;20208;-66
2022/09/08 09:22:16;;;;;;;9.30;5.55;;;;;;;26.53;nan;95303.53;5029166;28;20816;-64
2022/09/08 09:25:03;;;;;;;6.82;4.72;;;;;;;26.36;nan;95312.91;5031492;28;20214;-63
2022/09/08 09:27:42;;;;;;;6.82;5.35;;;;;;;25.87;nan;95303.53;5029052;28;20213;-63
2022/09/08 09:30:27;;;;;;;7.03;5.03;;;;;;;25.85;nan;95303.66;5030040;28;20217;-63
2022/09/08 09:33:15;;;;;;;7.20;5.35;;;;;;;26.13;nan;95291.56;5027525;28;22247;-61
2022/09/08 09:35:56;;;;;;;7.55;6.00;;;;;;;26.29;nan;95291.78;5030298;28;20311;-64
2022/09/08 09:38:55;;;;;;;11.32;7.53;;;;;;;26.56;nan;95288.44;5028799;28;20285;-60
2022/09/08 09:41:56;;;;;;;9.40;6.07;;;;;;;26.88;nan;95300.25;5029386;28;20712;-61
2022/09/08 09:44:49;;;;;;;6.75;5.75;;;;;;;26.99;nan;95282.63;5031026;28;20259;-64
2022/09/08 09:47:43;;;;;;;5.93;5.15;;;;;;;26.92;nan;95284.16;5009875;28;20210;-62
2022/09/08 09:50:42;;;;;;;5.47;4.80;;;;;;;26.77;nan;95275.16;5030469;28;20216;-61
2022/09/08 09:53:29;;;;;;;5.43;5.03;;;;;;;26.39;nan;95271.78;5027866;28;21362;-64
2022/09/08 09:56:17;;;;;;;4.97;4.47;;;;;;;25.99;nan;95271.97;5026429;28;20234;-64
2022/09/08 09:59:13;;;;;;;12.07;5.40;;;;;;;26.08;nan;95268.53;5028939;28;20233;-64
2022/09/08 10:02:01;;;;;;;8.75;5.75;;;;;;;25.96;nan;95259.25;5029120;28;20627;-66
2022/09/08 10:05:04;;;;;;;5.25;4.75;;;;;;;26.06;nan;95252.22;5029776;28;20206;-62
2022/09/08 10:08:24;;;;;;;5.70;5.00;;;;;;;26.39;nan;95250.91;5027603;28;20222;-64
2022/09/08 10:11:06;;;;;;;6.20;5.35;;;;;;;26.79;nan;95247.16;4997894;28;21091;-63
2022/09/08 10:14:03;;;;;;;4.50;4.25;;;;;;;26.88;nan;95251.50;5005239;28;20195;-64
2022/09/08 10:16:49;;;;;;;8.90;4.93;;;;;;;26.60;nan;95242.06;5025649;28;20206;-63
2022/09/08 10:19:38;;;;;;;5.90;5.05;;;;;;;26.47;nan;95231.16;5028206;28;20210;-62
2022/09/08 10:22:32;;;;;;;4.60;4.30;;;;;;;26.46;nan;95226.91;5029730;28;20230;-64
2022/09/08 10:25:31;;;;;;;4.80;4.50;;;;;;;26.13;nan;95223.84;5029823;28;20217;-63
2022/09/08 10:28:24;;;;;;;7.57;4.75;;;;;;;26.02;nan;95216.19;5029592;28;21620;-65
2022/09/08 10:31:26;;;;;;;5.43;5.03;;;;;;;26.42;nan;95214.16;5029198;28;20292;-64
2022/09/08 10:34:20;;;;;;;5.15;4.75;;;;;;;26.64;nan;95206.91;5029287;28;20271;-64
2022/09/08 10:36:58;;;;;;;5.68;5.28;;;;;;;26.70;nan;95208.94;5029174;28;20343;-62
2022/09/08 10:39:43;;;;;;;6.93;4.55;;;;;;;26.79;nan;95208.03;5028932;28;20202;-65
2022/09/08 10:42:43;;;;;;;5.72;5.28;;;;;;;26.78;nan;95209.84;5028483;28;20580;-64
2022/09/08 10:45:36;;;;;;;5.03;4.70;;;;;;;26.98;nan;95204.53;5030164;28;20202;-64
2022/09/08 10:48:34;;;;;;;5.20;4.85;;;;;;;27.32;nan;95199.47;4997179;28;21881;-65
2022/09/08 10:51:14;;;;;;;7.03;5.20;;;;;;;27.32;nan;95202.06;5026911;28;20213;-63
2022/09/08 10:53:55;;;;;;;11.55;4.45;;;;;;;27.29;nan;95191.94;5031508;28;20197;-63
2022/09/08 10:56:27;;;;;;;5.30;4.88;;;;;;;27.22;nan;95203.97;5029456;28;20206;-63
2022/09/08 10:59:26;;;;;;;8.20;4.20;;;;;;;26.99;nan;95186.13;5028553;28;20214;-62
2022/09/08 11:02:10;;;;;;;6.72;4.35;;;;;;;27.09;nan;95196.50;5028591;28;20767;-63
2022/09/08 11:05:11;;;;;;;6.18;5.47;;;;;;;27.35;nan;95197.38;5028892;28;20317;-64
2022/09/08 11:08:02;;;;;;;7.40;4.80;;;;;;;27.21;nan;95194.50;5028634;28;20234;-64
2022/09/08 11:10:45;;;;;;;10.52;5.30;;;;;;;26.76;nan;95185.69;5014889;28;20229;-64
2022/09/08 11:13:28;;;;;;;6.07;4.90;;;;;;;27.19;nan;95178.16;5026128;28;20733;-64
2022/09/08 11:16:22;;;;;;;6.18;5.18;;;;;;;27.47;nan;95171.06;5028645;28;20206;-64
2022/09/08 11:18:57;;;;;;;6.50;5.13;;;;;;;27.34;nan;95166.22;5029751;28;20210;-64
2022/09/08 11:21:28;;;;;;;5.57;4.78;;;;;;;27.37;nan;95171.13;5029004;28;20354;-62
2022/09/08 11:24:15;;;;;;;5.40;4.93;;;;;;;26.95;nan;95176.16;5027915;28;21371;-65
2022/09/08 11:26:53;;;;;;;8.07;4.88;;;;;;;26.91;nan;95172.97;5029775;28;20209;-64
2022/09/08 11:29:32;;;;;;;7.63;5.22;;;;;;;27.05;nan;95159.44;5028174;28;20334;-63
2022/09/08 11:32:10;;;;;;;8.23;5.07;;;;;;;27.07;nan;95175.78;5028000;28;20493;-63
2022/09/08 11:34:52;;;;;;;6.80;5.15;;;;;;;26.94;nan;95174.47;5027480;28;20989;-64
2022/09/08 11:37:49;;;;;;;5.20;4.85;;;;;;;27.06;nan;95166.31;5029272;28;20676;-64
2022/09/08 11:40:36;;;;;;;5.45;4.78;;;;;;;27.23;nan;95171.66;5032129;28;20206;-63
2022/09/08 11:43:25;;;;;;;7.03;5.22;;;;;;;27.37;nan;95171.13;5029406;28;20226;-64
2022/09/08 11:46:14;;;;;;;5.70;5.18;;;;;;;27.57;nan;95175.19;5031331;28;20203;-63
2022/09/08 11:49:09;;;;;;;7.22;5.00;;;;;;;27.47;nan;95179.69;5031752;28;20710;-62
2022/09/08 11:51:53;;;;;;;4.95;4.50;;;;;;;27.14;nan;95172.56;5030697;28;20217;-63
2022/09/08 11:54:39;;;;;;;10.15;4.82;;;;;;;27.23;nan;95169.03;5030248;28;20234;-62
2022/09/08 11:57:24;;;;;;;5.72;5.28;;;;;;;27.12;nan;95175.31;5032076;28;20277;-62
2022/09/08 12:00:10;;;;;;;7.30;5.60;;;;;;;27.36;nan;95172.09;5033554;28;20215;-63
2022/09/08 12:03:01;;;;;;;6.05;4.60;;;;;;;27.76;nan;95164.59;5031117;28;20310;-63
2022/09/08 12:05:35;;;;;;;6.28;4.97;;;;;;;28.09;nan;95164.78;5028770;28;20206;-65
2022/09/08 12:08:22;;;;;;;4.50;4.20;;;;;;;28.11;nan;95162.84;5029720;28;20534;-62
2022/09/08 12:11:11;;;;;;;5.90;5.40;;;;;;;28.19;nan;95162.88;5031344;28;20214;-62
2022/09/08 12:13:47;;;;;;;5.97;5.38;;;;;;;28.35;nan;95164.75;5031301;28;20206;-65
2022/09/08 12:16:35;;;;;;;5.25;4.80;;;;;;;28.52;nan;95160.41;5030918;28;20206;-63
2022/09/08 12:19:41;;;;;;;6.03;4.78;;;;;;;28.60;nan;95166.50;5032187;28;20244;-62
2022/09/08 12:22:21;;;;;;;5.80;4.55;;;;;;;28.49;nan;95165.94;5022994;28;20714;-63
2022/09/08 12:25:01;;;;;;;5.95;5.45;;;;;;;28.54;nan;95169.72;5029293;28;20210;-63
2022/09/08 12:27:42;;;;;;;5.47;4.75;;;;;;;28.71;nan;95160.13;5033274;28;20267;-64
2022/09/08 12:30:13;;;;;;;5.97;5.47;;;;;;;28.79;nan;95149.69;5031409;28;20209;-64
2022/09/08 12:33:06;;;;;;;6.15;5.75;;;;;;;28.83;nan;95148.44;5029478;28;20218;-63